sensor_id;sensor_type;location;lat;lon;timestamp;pressure;altitude;pressure_sealevel;temperature;humidity
71465;BME280;59274;49.874;9.154;2023-08-31T00:00:29;99646.91;;;13.63;100.00
71465;BME280;59274;49.874;9.154;2023-08-31T00:02:56;99647.84;;;13.49;100.00
71465;BME280;59274;49.874;9.154;2023-08-31T00:05:22;99646.31;;;13.48;100.00
71465;BME280;59274;49.874;9.154;2023-08-31T00:07:50;99650.59;;;13.46;100.00
71465;BME280;59274;49.874;9.154;2023-08-31T00:10:16;99654.97;;;13.40;100.00
71465;BME280;59274;49.874;9.154;2023-08-31T00:12:42;99651.13;;;13.33;100.00
71465;BME280;59274;49.874;9.154;2023-08-31T00:15:08;99651.16;;;13.30;100.00
71465;BME280;59274;49.874;9.154;2023-08-31T00:17:34;99653.81;;;13.37;100.00
71465;BME280;59274;49.874;9.154;2023-08-31T00:20:00;99660.47;;;13.32;100.00
71465;BME280;59274;49.874;9.154;2023-08-31T00:22:25;99658.97;;;13.28;100.00
71465;BME280;59274;49.874;9.154;2023-08-31T00:24:51;99657.38;;;13.30;100.00
71465;BME280;59274;49.874;9.154;2023-08-31T00:27:18;99663.22;;;13.32;100.00
71465;BME280;59274;49.874;9.154;2023-08-31T00:29:43;99663.97;;;13.33;100.00
71465;BME280;59274;49.874;9.154;2023-08-31T00:32:15;99668.59;;;13.40;100.00
71465;BME280;59274;49.874;9.154;2023-08-31T00:34:40;99669.78;;;13.39;100.00
71465;BME280;59274;49.874;9.154;2023-08-31T00:37:05;99662.34;;;13.43;100.00
71465;BME280;59274;49.874;9.154;2023-08-31T00:39:31;99669.38;;;13.40;100.00
71465;BME280;59274;49.874;9.154;2023-08-31T00:41:59;99666.59;;;13.44;100.00
71465;BME280;59274;49.874;9.154;2023-08-31T00:44:24;99670.53;;;13.39;100.00
71465;BME280;59274;49.874;9.154;2023-08-31T00:46:50;99665.13;;;13.36;100.00
71465;BME280;59274;49.874;9.154;2023-08-31T00:49:15;99655.41;;;13.35;100.00
71465;BME280;59274;49.874;9.154;2023-08-31T00:51:45;99661.66;;;13.31;100.00
71465;BME280;59274;49.874;9.154;2023-08-31T00:54:16;99665.94;;;13.32;100.00
71465;BME280;59274;49.874;9.154;2023-08-31T00:56:41;99668.69;;;13.29;100.00
71465;BME280;59274;49.874;9.154;2023-08-31T00:59:07;99667.09;;;13.35;100.00
71465;BME280;59274;49.874;9.154;2023-08-31T01:01:43;99672.97;;;13.30;100.00
71465;BME280;59274;49.874;9.154;2023-08-31T01:07:34;99677.22;;;13.35;100.00
71465;BME280;59274;49.874;9.154;2023-08-31T01:10:11;99674.44;;;13.38;100.00
71465;BME280;59274;49.874;9.154;2023-08-31T01:12:50;99690.56;;;13.25;100.00
71465;BME280;59274;49.874;9.154;2023-08-31T01:15:17;99685.88;;;13.26;100.00
71465;BME280;59274;49.874;9.154;2023-08-31T01:17:54;99688.22;;;13.24;100.00
71465;BME280;59274;49.874;9.154;2023-08-31T01:20:38;99672.72;;;13.10;100.00
71465;BME280;59274;49.874;9.154;2023-08-31T01:23:16;99679.78;;;13.04;100.00
71465;BME280;59274;49.874;9.154;2023-08-31T01:25:43;99676.72;;;12.99;100.00
71465;BME280;59274;49.874;9.154;2023-08-31T01:28:10;99675.63;;;12.92;100.00
71465;BME280;59274;49.874;9.154;2023-08-31T01:30:36;99688.47;;;12.92;100.00
71465;BME280;59274;49.874;9.154;2023-08-31T01:33:01;99684.97;;;12.88;100.00
71465;BME280;59274;49.874;9.154;2023-08-31T01:35:30;99683.84;;;12.85;100.00
71465;BME280;59274;49.874;9.154;2023-08-31T01:38:01;99680.41;;;12.78;100.00
71465;BME280;59274;49.874;9.154;2023-08-31T01:40:54;99691.75;;;12.69;100.00
71465;BME280;59274;49.874;9.154;2023-08-31T01:43:24;99698.78;;;12.63;100.00
71465;BME280;59274;49.874;9.154;2023-08-31T01:45:50;99705.41;;;12.62;100.00
71465;BME280;59274;49.874;9.154;2023-08-31T01:48:16;99703.47;;;12.59;100.00
71465;BME280;59274;49.874;9.154;2023-08-31T01:50:41;99707.41;;;12.54;100.00
71465;BME280;59274;49.874;9.154;2023-08-31T01:53:07;99706.25;;;12.48;100.00
71465;BME280;59274;49.874;9.154;2023-08-31T01:55:32;99717.09;;;12.63;100.00
71465;BME280;59274;49.874;9.154;2023-08-31T01:57:58;99708.19;;;12.51;100.00
71465;BME280;59274;49.874;9.154;2023-08-31T02:00:25;99718.72;;;12.46;100.00
71465;BME280;59274;49.874;9.154;2023-08-31T02:02:50;99709.38;;;12.43;100.00
71465;BME280;59274;49.874;9.154;2023-08-31T02:05:16;99718.38;;;12.37;100.00
71465;BME280;59274;49.874;9.154;2023-08-31T02:07:41;99709.84;;;12.35;100.00
71465;BME280;59274;49.874;9.154;2023-08-31T02:10:07;99708.31;;;12.27;100.00
71465;BME280;59274;49.874;9.154;2023-08-31T02:12:33;99712.56;;;12.31;100.00
71465;BME280;59274;49.874;9.154;2023-08-31T02:14:59;99718.06;;;12.21;100.00
71465;BME280;59274;49.874;9.154;2023-08-31T02:17:25;99701.31;;;12.26;100.00
71465;BME280;59274;49.874;9.154;2023-08-31T02:19:51;99700.19;;;12.20;100.00
71465;BME280;59274;49.874;9.154;2023-08-31T02:22:16;99702.53;;;12.14;100.00
71465;BME280;59274;49.874;9.154;2023-08-31T02:24:42;99710.34;;;12.05;100.00
71465;BME280;59274;49.874;9.154;2023-08-31T02:27:07;99709.97;;;12.06;100.00
71465;BME280;59274;49.874;9.154;2023-08-31T02:29:32;99712.66;;;12.10;100.00
71465;BME280;59274;49.874;9.154;2023-08-31T02:31:58;99720.47;;;12.04;100.00
71465;BME280;59274;49.874;9.154;2023-08-31T02:34:23;99717.34;;;12.06;100.00
71465;BME280;59274;49.874;9.154;2023-08-31T02:36:49;99711.84;;;12.16;100.00
71465;BME280;59274;49.874;9.154;2023-08-31T02:39:14;99723.56;;;12.03;100.00
71465;BME280;59274;49.874;9.154;2023-08-31T02:41:41;99724.75;;;12.02;100.00
71465;BME280;59274;49.874;9.154;2023-08-31T02:44:06;99726.31;;;11.99;100.00
71465;BME280;59274;49.874;9.154;2023-08-31T02:46:32;99724.41;;;11.93;100.00
71465;BME280;59274;49.874;9.154;2023-08-31T02:48:57;99725.94;;;11.87;100.00
71465;BME280;59274;49.874;9.154;2023-08-31T02:51:23;99733.38;;;11.79;100.00
71465;BME280;59274;49.874;9.154;2023-08-31T02:53:48;99729.09;;;11.78;100.00
71465;BME280;59274;49.874;9.154;2023-08-31T02:56:14;99722.47;;;11.72;100.00
71465;BME280;59274;49.874;9.154;2023-08-31T02:58:39;99723.25;;;11.69;100.00
71465;BME280;59274;49.874;9.154;2023-08-31T03:01:11;99720.16;;;11.70;100.00
71465;BME280;59274;49.874;9.154;2023-08-31T03:03:41;99724.81;;;11.66;100.00
71465;BME280;59274;49.874;9.154;2023-08-31T03:06:07;99726.75;;;11.80;100.00
71465;BME280;59274;49.874;9.154;2023-08-31T03:08:36;99714.31;;;11.75;100.00
71465;BME280;59274;49.874;9.154;2023-08-31T03:11:03;99719.38;;;11.84;100.00
71465;BME280;59274;49.874;9.154;2023-08-31T03:13:29;99715.47;;;11.92;100.00
71465;BME280;59274;49.874;9.154;2023-08-31T03:15:55;99717.38;;;11.95;100.00
71465;BME280;59274;49.874;9.154;2023-08-31T03:18:22;99719.28;;;12.05;100.00
71465;BME280;59274;49.874;9.154;2023-08-31T03:20:47;99720.78;;;12.17;100.00
71465;BME280;59274;49.874;9.154;2023-08-31T03:23:12;99728.16;;;12.24;100.00
71465;BME280;59274;49.874;9.154;2023-08-31T03:25:38;99724.66;;;12.27;100.00
71465;BME280;59274;49.874;9.154;2023-08-31T03:28:03;99733.97;;;12.33;100.00
71465;BME280;59274;49.874;9.154;2023-08-31T03:30:29;99725.75;;;12.36;100.00
71465;BME280;59274;49.874;9.154;2023-08-31T03:32:54;99734.34;;;12.35;100.00
71465;BME280;59274;49.874;9.154;2023-08-31T03:35:19;99733.56;;;12.34;100.00
71465;BME280;59274;49.874;9.154;2023-08-31T03:37:49;99733.53;;;12.38;100.00
71465;BME280;59274;49.874;9.154;2023-08-31T03:40:14;99742.50;;;12.38;100.00
71465;BME280;59274;49.874;9.154;2023-08-31T03:42:40;99744.78;;;12.43;100.00
71465;BME280;59274;49.874;9.154;2023-08-31T03:45:05;99745.16;;;12.52;100.00
71465;BME280;59274;49.874;9.154;2023-08-31T03:47:31;99747.13;;;12.45;100.00
71465;BME280;59274;49.874;9.154;2023-08-31T03:49:57;99756.06;;;12.45;100.00
71465;BME280;59274;49.874;9.154;2023-08-31T03:52:22;99757.63;;;12.46;100.00
71465;BME280;59274;49.874;9.154;2023-08-31T03:54:49;99762.28;;;12.49;100.00
71465;BME280;59274;49.874;9.154;2023-08-31T03:57:15;99765.41;;;12.48;100.00
71465;BME280;59274;49.874;9.154;2023-08-31T03:59:40;99766.19;;;12.48;100.00
71465;BME280;59274;49.874;9.154;2023-08-31T04:02:05;99768.88;;;12.52;100.00
71465;BME280;59274;49.874;9.154;2023-08-31T04:04:31;99772.00;;;12.54;100.00
71465;BME280;59274;49.874;9.154;2023-08-31T04:06:57;99768.50;;;12.57;100.00
71465;BME280;59274;49.874;9.154;2023-08-31T04:09:22;99775.03;;;12.67;100.00
71465;BME280;59274;49.874;9.154;2023-08-31T04:11:48;99777.00;;;12.63;100.00
71465;BME280;59274;49.874;9.154;2023-08-31T04:14:14;99774.69;;;12.61;100.00
71465;BME280;59274;49.874;9.154;2023-08-31T04:16:39;99775.84;;;12.64;100.00
71465;BME280;59274;49.874;9.154;2023-08-31T04:19:04;99775.81;;;12.67;100.00
71465;BME280;59274;49.874;9.154;2023-08-31T04:21:30;99775.06;;;12.63;100.00
71465;BME280;59274;49.874;9.154;2023-08-31T04:23:55;99774.25;;;12.66;100.00
71465;BME280;59274;49.874;9.154;2023-08-31T04:26:21;99778.97;;;12.62;100.00
71465;BME280;59274;49.874;9.154;2023-08-31T04:28:46;99776.97;;;12.66;100.00
71465;BME280;59274;49.874;9.154;2023-08-31T04:31:11;99786.75;;;12.60;100.00
71465;BME280;59274;49.874;9.154;2023-08-31T04:33:38;99795.72;;;12.57;100.00
71465;BME280;59274;49.874;9.154;2023-08-31T04:36:04;99782.88;;;12.54;100.00
71465;BME280;59274;49.874;9.154;2023-08-31T04:38:31;99792.22;;;12.57;100.00
71465;BME280;59274;49.874;9.154;2023-08-31T04:41:00;99788.31;;;12.57;100.00
71465;BME280;59274;49.874;9.154;2023-08-31T04:43:26;99794.13;;;12.60;100.00
71465;BME280;59274;49.874;9.154;2023-08-31T04:45:53;99791.84;;;12.54;100.00
71465;BME280;59274;49.874;9.154;2023-08-31T04:48:18;99790.66;;;12.52;100.00
71465;BME280;59274;49.874;9.154;2023-08-31T04:50:44;99789.13;;;12.51;100.00
71465;BME280;59274;49.874;9.154;2023-08-31T04:53:09;99794.59;;;12.47;100.00
71465;BME280;59274;49.874;9.154;2023-08-31T04:55:35;99793.44;;;12.45;100.00
71465;BME280;59274;49.874;9.154;2023-08-31T04:58:00;99795.41;;;12.41;100.00
71465;BME280;59274;49.874;9.154;2023-08-31T05:00:26;99799.69;;;12.42;100.00
71465;BME280;59274;49.874;9.154;2023-08-31T05:02:51;99797.69;;;12.46;100.00
71465;BME280;59274;49.874;9.154;2023-08-31T05:05:16;99796.16;;;12.45;100.00
71465;BME280;59274;49.874;9.154;2023-08-31T05:07:43;99805.09;;;12.49;100.00
71465;BME280;59274;49.874;9.154;2023-08-31T05:10:09;99805.09;;;12.45;100.00
71465;BME280;59274;49.874;9.154;2023-08-31T05:12:35;99812.09;;;12.46;100.00
71465;BME280;59274;49.874;9.154;2023-08-31T05:15:00;99814.44;;;12.48;100.00
71465;BME280;59274;49.874;9.154;2023-08-31T05:17:26;99821.44;;;12.49;100.00
71465;BME280;59274;49.874;9.154;2023-08-31T05:19:51;99824.94;;;12.49;100.00
71465;BME280;59274;49.874;9.154;2023-08-31T05:22:16;99824.16;;;12.49;100.00
71465;BME280;59274;49.874;9.154;2023-08-31T05:24:43;99828.81;;;12.52;100.00
71465;BME280;59274;49.874;9.154;2023-08-31T05:27:08;99839.34;;;12.46;100.00
71465;BME280;59274;49.874;9.154;2023-08-31T05:29:33;99843.22;;;12.49;100.00
71465;BME280;59274;49.874;9.154;2023-08-31T05:31:59;99841.28;;;12.46;100.00
71465;BME280;59274;49.874;9.154;2023-08-31T05:34:25;99849.06;;;12.44;100.00
71465;BME280;59274;49.874;9.154;2023-08-31T05:36:50;99851.03;;;12.40;100.00
71465;BME280;59274;49.874;9.154;2023-08-31T05:39:16;99857.63;;;12.46;100.00
71465;BME280;59274;49.874;9.154;2023-08-31T05:41:42;99847.13;;;12.44;100.00
71465;BME280;59274;49.874;9.154;2023-08-31T05:44:09;99850.66;;;12.41;100.00
71465;BME280;59274;49.874;9.154;2023-08-31T05:46:34;99849.47;;;12.49;100.00
71465;BME280;59274;49.874;9.154;2023-08-31T05:49:00;99860.72;;;12.51;100.00
71465;BME280;59274;49.874;9.154;2023-08-31T05:51:25;99862.25;;;12.63;100.00
71465;BME280;59274;49.874;9.154;2023-08-31T05:53:51;99864.19;;;12.63;100.00
71465;BME280;59274;49.874;9.154;2023-08-31T05:56:19;99856.38;;;12.68;100.00
71465;BME280;59274;49.874;9.154;2023-08-31T05:58:44;99860.28;;;12.67;100.00
71465;BME280;59274;49.874;9.154;2023-08-31T06:01:10;99861.84;;;12.68;100.00
71465;BME280;59274;49.874;9.154;2023-08-31T06:03:35;99859.84;;;12.72;100.00
71465;BME280;59274;49.874;9.154;2023-08-31T06:06:02;99856.75;;;12.77;100.00
71465;BME280;59274;49.874;9.154;2023-08-31T06:08:28;99856.31;;;12.82;100.00
71465;BME280;59274;49.874;9.154;2023-08-31T06:10:56;99863.72;;;12.82;100.00
71465;BME280;59274;49.874;9.154;2023-08-31T06:13:21;99874.19;;;12.90;100.00
71465;BME280;59274;49.874;9.154;2023-08-31T06:15:47;99874.94;;;12.94;100.00
71465;BME280;59274;49.874;9.154;2023-08-31T06:18:12;99883.50;;;12.97;100.00
71465;BME280;59274;49.874;9.154;2023-08-31T06:20:38;99883.50;;;12.97;100.00
71465;BME280;59274;49.874;9.154;2023-08-31T06:23:03;99893.25;;;12.98;100.00
71465;BME280;59274;49.874;9.154;2023-08-31T06:25:29;99897.13;;;13.04;100.00
71465;BME280;59274;49.874;9.154;2023-08-31T06:27:54;99901.41;;;13.05;100.00
71465;BME280;59274;49.874;9.154;2023-08-31T06:30:19;99902.53;;;13.11;100.00
71465;BME280;59274;49.874;9.154;2023-08-31T06:32:46;99892.41;;;13.15;100.00
71465;BME280;59274;49.874;9.154;2023-08-31T06:35:12;99901.34;;;13.19;100.00
71465;BME280;59274;49.874;9.154;2023-08-31T06:37:39;99902.84;;;13.30;100.00
71465;BME280;59274;49.874;9.154;2023-08-31T06:40:06;99903.56;;;13.38;100.00
71465;BME280;59274;49.874;9.154;2023-08-31T06:42:33;99910.59;;;13.43;100.00
71465;BME280;59274;49.874;9.154;2023-08-31T06:44:59;99919.13;;;13.48;100.00
71465;BME280;59274;49.874;9.154;2023-08-31T06:47:24;99909.69;;;13.60;100.00
71465;BME280;59274;49.874;9.154;2023-08-31T06:49:50;99903.31;;;13.77;100.00
71465;BME280;59274;49.874;9.154;2023-08-31T06:52:15;99916.47;;;13.89;100.00
71465;BME280;59274;49.874;9.154;2023-08-31T06:54:41;99909.88;;;13.87;100.00
71465;BME280;59274;49.874;9.154;2023-08-31T06:57:07;99911.41;;;13.88;100.00
71465;BME280;59274;49.874;9.154;2023-08-31T06:59:32;99923.50;;;13.87;100.00
71465;BME280;59274;49.874;9.154;2023-08-31T07:01:58;99918.94;;;13.77;100.00
71465;BME280;59274;49.874;9.154;2023-08-31T07:04:23;99918.88;;;13.80;100.00
71465;BME280;59274;49.874;9.154;2023-08-31T07:06:49;99929.84;;;13.77;100.00
71465;BME280;59274;49.874;9.154;2023-08-31T07:09:14;99927.41;;;13.86;100.00
71465;BME280;59274;49.874;9.154;2023-08-31T07:11:39;99927.41;;;13.86;100.00
71465;BME280;59274;49.874;9.154;2023-08-31T07:14:05;99940.28;;;13.89;100.00
71465;BME280;59274;49.874;9.154;2023-08-31T07:16:30;99940.22;;;13.96;100.00
71465;BME280;59274;49.874;9.154;2023-08-31T07:18:56;99938.16;;;14.07;100.00
71465;BME280;59274;49.874;9.154;2023-08-31T07:21:21;99943.16;;;14.19;100.00
71465;BME280;59274;49.874;9.154;2023-08-31T07:23:47;99941.09;;;14.30;100.00
71465;BME280;59274;49.874;9.154;2023-08-31T07:26:16;99944.13;;;14.43;100.00
71465;BME280;59274;49.874;9.154;2023-08-31T07:28:42;99951.44;;;14.53;100.00
71465;BME280;59274;49.874;9.154;2023-08-31T07:31:07;99949.50;;;14.54;100.00
71465;BME280;59274;49.874;9.154;2023-08-31T07:33:33;99964.31;;;14.56;100.00
71465;BME280;59274;49.874;9.154;2023-08-31T07:36:00;99965.06;;;14.57;100.00
71465;BME280;59274;49.874;9.154;2023-08-31T07:38:27;99955.75;;;14.50;100.00
71465;BME280;59274;49.874;9.154;2023-08-31T07:40:53;99967.34;;;14.65;100.00
71465;BME280;59274;49.874;9.154;2023-08-31T07:43:19;99969.78;;;14.56;100.00
71465;BME280;59274;49.874;9.154;2023-08-31T07:45:44;99971.28;;;14.61;100.00
71465;BME280;59274;49.874;9.154;2023-08-31T07:48:10;99979.13;;;14.59;100.00
71465;BME280;59274;49.874;9.154;2023-08-31T07:50:35;99981.25;;;14.40;100.00
71465;BME280;59274;49.874;9.154;2023-08-31T07:53:00;99985.91;;;14.36;100.00
71465;BME280;59274;49.874;9.154;2023-08-31T07:55:26;99977.00;;;14.32;100.00
71465;BME280;59274;49.874;9.154;2023-08-31T07:57:51;99984.00;;;14.33;100.00
71465;BME280;59274;49.874;9.154;2023-08-31T08:00:17;99990.66;;;14.29;100.00
71465;BME280;59274;49.874;9.154;2023-08-31T08:02:45;99988.66;;;14.40;100.00
71465;BME280;59274;49.874;9.154;2023-08-31T08:05:10;99989.31;;;14.55;100.00
71465;BME280;59274;49.874;9.154;2023-08-31T08:07:36;99980.19;;;14.68;100.00
71465;BME280;59274;49.874;9.154;2023-08-31T08:10:01;99984.00;;;14.78;100.00
71465;BME280;59274;49.874;9.154;2023-08-31T08:12:27;99988.09;;;14.97;100.00
71465;BME280;59274;49.874;9.154;2023-08-31T08:14:52;99984.50;;;15.03;100.00
71465;BME280;59274;49.874;9.154;2023-08-31T08:17:18;99987.84;;;15.18;100.00
71465;BME280;59274;49.874;9.154;2023-08-31T08:19:43;99998.03;;;15.14;100.00
71465;BME280;59274;49.874;9.154;2023-08-31T08:22:09;99996.09;;;15.14;100.00
71465;BME280;59274;49.874;9.154;2023-08-31T08:24:35;99998.56;;;15.05;100.00
71465;BME280;59274;49.874;9.154;2023-08-31T08:27:00;100001.69;;;15.04;100.00
71465;BME280;59274;49.874;9.154;2023-08-31T08:29:25;100004.44;;;15.04;100.00
71465;BME280;59274;49.874;9.154;2023-08-31T08:31:51;100009.75;;;15.18;100.00
71465;BME280;59274;49.874;9.154;2023-08-31T08:34:16;100013.19;;;15.22;100.00
71465;BME280;59274;49.874;9.154;2023-08-31T08:36:42;100017.72;;;15.36;100.00
71465;BME280;59274;49.874;9.154;2023-08-31T08:39:07;100022.84;;;15.34;100.00
71465;BME280;59274;49.874;9.154;2023-08-31T08:41:33;100020.66;;;15.52;100.00
71465;BME280;59274;49.874;9.154;2023-08-31T08:44:02;100017.00;;;15.65;100.00
71465;BME280;59274;49.874;9.154;2023-08-31T08:46:31;100022.34;;;15.76;100.00
71465;BME280;59274;49.874;9.154;2023-08-31T08:48:59;100017.09;;;15.85;100.00
71465;BME280;59274;49.874;9.154;2023-08-31T08:51:29;100028.44;;;15.87;100.00
71465;BME280;59274;49.874;9.154;2023-08-31T08:53:58;100015.59;;;16.08;100.00
71465;BME280;59274;49.874;9.154;2023-08-31T08:56:24;100033.47;;;16.16;100.00
71465;BME280;59274;49.874;9.154;2023-08-31T08:58:50;100027.19;;;16.19;100.00
71465;BME280;59274;49.874;9.154;2023-08-31T09:01:15;100028.84;;;16.13;100.00
71465;BME280;59274;49.874;9.154;2023-08-31T09:03:43;100032.16;;;16.00;100.00
71465;BME280;59274;49.874;9.154;2023-08-31T09:06:08;100034.47;;;16.02;100.00
71465;BME280;59274;49.874;9.154;2023-08-31T09:08:35;100034.97;;;15.93;100.00
71465;BME280;59274;49.874;9.154;2023-08-31T09:11:02;100033.41;;;15.96;100.00
71465;BME280;59274;49.874;9.154;2023-08-31T09:13:29;100025.13;;;15.99;100.00
71465;BME280;59274;49.874;9.154;2023-08-31T09:15:55;100032.00;;;15.84;100.00
71465;BME280;59274;49.874;9.154;2023-08-31T09:20:50;100044.34;;;15.69;100.00
71465;BME280;59274;49.874;9.154;2023-08-31T09:23:17;100039.16;;;15.75;100.00
71465;BME280;59274;49.874;9.154;2023-08-31T09:25:53;100028.91;;;15.82;100.00
71465;BME280;59274;49.874;9.154;2023-08-31T09:28:21;100040.63;;;16.10;100.00
71465;BME280;59274;49.874;9.154;2023-08-31T09:30:48;100038.25;;;16.35;100.00
71465;BME280;59274;49.874;9.154;2023-08-31T09:33:16;100042.34;;;16.50;100.00
71465;BME280;59274;49.874;9.154;2023-08-31T09:36:06;100035.63;;;16.78;100.00
71465;BME280;59274;49.874;9.154;2023-08-31T09:38:41;100032.06;;;17.01;100.00
71465;BME280;59274;49.874;9.154;2023-08-31T09:41:06;100035.72;;;17.14;100.00
71465;BME280;59274;49.874;9.154;2023-08-31T09:43:32;100038.06;;;17.15;100.00
71465;BME280;59274;49.874;9.154;2023-08-31T09:45:58;100031.44;;;17.13;100.00
71465;BME280;59274;49.874;9.154;2023-08-31T09:48:25;100024.97;;;17.03;100.00
71465;BME280;59274;49.874;9.154;2023-08-31T09:50:52;100032.16;;;16.97;100.00
71465;BME280;59274;49.874;9.154;2023-08-31T09:53:20;100029.59;;;16.63;100.00
71465;BME280;59274;49.874;9.154;2023-08-31T09:55:47;100034.13;;;16.73;100.00
71465;BME280;59274;49.874;9.154;2023-08-31T09:58:17;100036.59;;;16.68;100.00
71465;BME280;59274;49.874;9.154;2023-08-31T10:00:43;100036.91;;;16.93;100.00
71465;BME280;59274;49.874;9.154;2023-08-31T10:03:09;100034.28;;;17.09;100.00
71465;BME280;59274;49.874;9.154;2023-08-31T10:05:39;100022.94;;;17.07;100.00
71465;BME280;59274;49.874;9.154;2023-08-31T10:08:05;100030.84;;;17.25;100.00
71465;BME280;59274;49.874;9.154;2023-08-31T10:10:33;100029.78;;;17.39;100.00
71465;BME280;59274;49.874;9.154;2023-08-31T10:12:59;100025.66;;;17.27;100.00
71465;BME280;59274;49.874;9.154;2023-08-31T10:15:26;100030.53;;;17.19;100.00
71465;BME280;59274;49.874;9.154;2023-08-31T10:17:57;100038.28;;;17.05;100.00
71465;BME280;59274;49.874;9.154;2023-08-31T10:20:23;100045.94;;;17.13;100.00
71465;BME280;59274;49.874;9.154;2023-08-31T10:22:49;100031.75;;;17.18;100.00
71465;BME280;59274;49.874;9.154;2023-08-31T10:25:14;100037.66;;;17.17;100.00
71465;BME280;59274;49.874;9.154;2023-08-31T10:27:41;100033.84;;;17.11;100.00
71465;BME280;59274;49.874;9.154;2023-08-31T10:38:17;100035.28;;;16.76;100.00
71465;BME280;59274;49.874;9.154;2023-08-31T10:43:51;100037.09;;;16.59;100.00
71465;BME280;59274;49.874;9.154;2023-08-31T10:46:34;100049.94;;;16.66;100.00
71465;BME280;59274;49.874;9.154;2023-08-31T10:51:27;100043.00;;;16.58;100.00
71465;BME280;59274;49.874;9.154;2023-08-31T10:54:07;100045.81;;;16.54;100.00
71465;BME280;59274;49.874;9.154;2023-08-31T11:02:10;100029.59;;;17.06;100.00
71465;BME280;59274;49.874;9.154;2023-08-31T11:04:54;100032.28;;;17.49;100.00
71465;BME280;59274;49.874;9.154;2023-08-31T11:07:25;100032.50;;;17.58;100.00
71465;BME280;59274;49.874;9.154;2023-08-31T11:09:51;100028.47;;;17.83;100.00
71465;BME280;59274;49.874;9.154;2023-08-31T11:12:16;100034.25;;;18.05;100.00
71465;BME280;59274;49.874;9.154;2023-08-31T11:14:42;100029.38;;;18.28;100.00
71465;BME280;59274;49.874;9.154;2023-08-31T11:17:08;100030.25;;;18.58;100.00
71465;BME280;59274;49.874;9.154;2023-08-31T11:19:35;100024.63;;;18.77;100.00
71465;BME280;59274;49.874;9.154;2023-08-31T11:22:01;100025.81;;;18.76;100.00
71465;BME280;59274;49.874;9.154;2023-08-31T11:24:31;100019.88;;;19.23;90.52
71465;BME280;59274;49.874;9.154;2023-08-31T11:26:57;100010.59;;;19.59;77.56
71465;BME280;59274;49.874;9.154;2023-08-31T11:29:23;100014.25;;;19.93;69.79
71465;BME280;59274;49.874;9.154;2023-08-31T11:31:48;100015.91;;;20.16;64.82
71465;BME280;59274;49.874;9.154;2023-08-31T11:34:18;100004.41;;;20.30;64.50
71465;BME280;59274;49.874;9.154;2023-08-31T11:36:45;99999.00;;;20.52;61.53
71465;BME280;59274;49.874;9.154;2023-08-31T11:39:12;100016.47;;;20.24;63.90
71465;BME280;59274;49.874;9.154;2023-08-31T11:41:38;100013.06;;;19.94;64.68
71465;BME280;59274;49.874;9.154;2023-08-31T11:44:14;100016.19;;;19.55;60.12
71465;BME280;59274;49.874;9.154;2023-08-31T11:46:45;100010.34;;;19.11;63.41
71465;BME280;59274;49.874;9.154;2023-08-31T11:49:11;100018.91;;;19.01;65.44
71465;BME280;59274;49.874;9.154;2023-08-31T11:51:39;100033.13;;;19.12;65.94
71465;BME280;59274;49.874;9.154;2023-08-31T11:54:05;100020.72;;;19.49;63.40
71465;BME280;59274;49.874;9.154;2023-08-31T11:56:45;100021.09;;;19.35;61.92
71465;BME280;59274;49.874;9.154;2023-08-31T11:59:19;100019.50;;;19.21;63.76
71465;BME280;59274;49.874;9.154;2023-08-31T12:01:46;100007.31;;;18.93;63.99
71465;BME280;59274;49.874;9.154;2023-08-31T12:04:14;100023.84;;;18.77;64.73
71465;BME280;59274;49.874;9.154;2023-08-31T12:06:40;100023.19;;;18.57;65.25
71465;BME280;59274;49.874;9.154;2023-08-31T12:09:09;100030.66;;;18.72;66.89
71465;BME280;59274;49.874;9.154;2023-08-31T12:11:35;100024.19;;;18.79;65.98
71465;BME280;59274;49.874;9.154;2023-08-31T12:14:01;100021.56;;;18.75;67.16
71465;BME280;59274;49.874;9.154;2023-08-31T12:16:35;100009.19;;;18.67;68.88
71465;BME280;59274;49.874;9.154;2023-08-31T12:19:04;100016.06;;;18.59;69.89
71465;BME280;59274;49.874;9.154;2023-08-31T12:21:31;100002.06;;;18.37;76.25
71465;BME280;59274;49.874;9.154;2023-08-31T12:23:59;100007.13;;;18.23;74.29
71465;BME280;59274;49.874;9.154;2023-08-31T12:26:26;100012.97;;;18.25;74.66
71465;BME280;59274;49.874;9.154;2023-08-31T12:28:52;100008.84;;;18.33;70.52
71465;BME280;59274;49.874;9.154;2023-08-31T12:31:17;100005.16;;;18.39;71.38
71465;BME280;59274;49.874;9.154;2023-08-31T12:33:43;99995.31;;;18.55;69.83
71465;BME280;59274;49.874;9.154;2023-08-31T12:36:09;99985.72;;;18.47;70.19
71465;BME280;59274;49.874;9.154;2023-08-31T12:38:34;99982.19;;;18.62;67.63
71465;BME280;59274;49.874;9.154;2023-08-31T12:41:00;99985.75;;;19.04;64.83
71465;BME280;59274;49.874;9.154;2023-08-31T12:43:27;99968.34;;;20.12;57.78
71465;BME280;59274;49.874;9.154;2023-08-31T12:45:54;99971.13;;;20.12;59.79
71465;BME280;59274;49.874;9.154;2023-08-31T12:48:20;99971.84;;;20.51;57.35
71465;BME280;59274;49.874;9.154;2023-08-31T12:50:45;99974.97;;;20.96;55.50
71465;BME280;59274;49.874;9.154;2023-08-31T12:53:13;99973.69;;;21.32;55.20
71465;BME280;59274;49.874;9.154;2023-08-31T12:55:39;99977.44;;;21.78;48.65
71465;BME280;59274;49.874;9.154;2023-08-31T12:58:04;99973.53;;;21.57;47.45
71465;BME280;59274;49.874;9.154;2023-08-31T13:00:30;99968.84;;;21.76;47.09
71465;BME280;59274;49.874;9.154;2023-08-31T13:02:55;99969.44;;;22.02;45.77
71465;BME280;59274;49.874;9.154;2023-08-31T13:05:21;99983.63;;;22.22;43.26
71465;BME280;59274;49.874;9.154;2023-08-31T13:07:46;99968.38;;;22.17;43.31
71465;BME280;59274;49.874;9.154;2023-08-31T13:10:12;99963.59;;;22.09;42.22